createdAt,value
2023-03-08T00:01:24.053Z,96238.44
2023-03-08T00:03:53.964Z,96222.69
2023-03-08T00:06:22.192Z,96213.75
2023-03-08T00:08:49.934Z,96230.31
2023-03-08T00:11:18.105Z,96236.25
2023-03-08T00:13:45.611Z,96235.78
2023-03-08T00:16:14.074Z,96242.47
2023-03-08T00:18:41.804Z,96229.84
2023-03-08T00:21:16.289Z,96226.16
2023-03-08T00:23:44.857Z,96231.84
2023-03-08T00:26:13.073Z,96239.97
2023-03-08T00:28:42.094Z,96241.97
2023-03-08T00:31:12.931Z,96245.59
2023-03-08T00:33:40.674Z,96246.97
2023-03-08T00:36:18.821Z,96252.66
2023-03-08T00:38:48.221Z,96261.13
2023-03-08T00:41:15.814Z,96249.06
2023-03-08T00:43:43.520Z,96246.25
2023-03-08T00:46:12.508Z,96226.66
2023-03-08T00:48:40.329Z,96236.47
2023-03-08T00:51:12.264Z,96234.63
2023-03-08T00:53:39.780Z,96218.72
2023-03-08T00:56:07.539Z,96216.63
2023-03-08T00:58:39.425Z,96202.91
2023-03-08T01:01:09.203Z,96203.28
2023-03-08T01:03:36.702Z,96199.69
2023-03-08T01:06:11.396Z,96200.22
2023-03-08T01:08:42.045Z,96196.94
2023-03-08T01:11:18.195Z,96197.81
2023-03-08T01:13:47.807Z,96196.53
2023-03-08T01:16:25.119Z,96187.47
2023-03-08T01:18:53.354Z,96186.41
2023-03-08T01:21:21.686Z,96180.44
2023-03-08T01:23:49.903Z,96173.22
2023-03-08T01:26:21.932Z,96172.28
2023-03-08T01:28:50.189Z,96165.50
2023-03-08T01:31:27.743Z,96166.53
2023-03-08T01:33:57.407Z,96161.75
2023-03-08T01:36:27.995Z,96156.19
2023-03-08T01:38:55.972Z,96152.59
2023-03-08T01:41:30.149Z,96156.44
2023-03-08T01:43:57.862Z,96157.41
2023-03-08T01:46:36.509Z,96146.19
2023-03-08T01:49:30.314Z,96146.72
2023-03-08T01:52:18.343Z,96151.72
2023-03-08T01:54:54.910Z,96143.66
2023-03-08T01:57:30.085Z,96145.47
2023-03-08T02:00:09.650Z,96152.94
2023-03-08T02:02:53.179Z,96144.00
2023-03-08T02:05:21.734Z,96142.34
2023-03-08T02:07:52.866Z,96150.66
2023-03-08T02:10:21.685Z,96147.38
2023-03-08T02:12:49.226Z,96148.19
2023-03-08T02:15:20.280Z,96147.38
2023-03-08T02:17:51.767Z,96143.44
2023-03-08T02:20:32.808Z,96131.34
2023-03-08T02:23:17.324Z,96123.63
2023-03-08T02:25:59.120Z,96115.03
2023-03-08T02:28:27.664Z,96118.50
2023-03-08T02:30:56.535Z,96116.03
2023-03-08T02:33:24.667Z,96121.13
2023-03-08T02:35:52.612Z,96118.50
2023-03-08T02:38:21.410Z,96104.06
2023-03-08T02:40:51.533Z,96101.91
2023-03-08T02:43:20.085Z,96091.97
2023-03-08T02:45:47.938Z,96090.34
2023-03-08T02:48:16.606Z,96096.78
2023-03-08T02:50:44.477Z,96087.31
2023-03-08T02:53:12.056Z,96090.59
2023-03-08T02:55:39.890Z,96086.66
2023-03-08T02:58:12.249Z,96093.91
2023-03-08T03:00:40.044Z,96083.59
2023-03-08T03:03:07.537Z,96082.25
2023-03-08T03:05:35.522Z,96074.66
2023-03-08T03:08:06.850Z,96073.50
2023-03-08T03:13:06.069Z,96044.13
2023-03-08T03:15:37.155Z,96038.81
2023-03-08T03:18:05.818Z,96034.81
2023-03-08T03:20:34.471Z,96032.50
2023-03-08T03:23:02.310Z,96024.84
2023-03-08T03:25:40.616Z,96015.72
2023-03-08T03:28:12.213Z,96017.22
2023-03-08T03:30:40.336Z,96024.69
2023-03-08T03:33:11.010Z,96021.00
2023-03-08T03:35:39.702Z,96019.56
2023-03-08T03:38:08.281Z,96012.53
2023-03-08T03:40:36.301Z,96008.59
2023-03-08T03:43:05.047Z,96009.31
2023-03-08T03:45:32.548Z,96003.38
2023-03-08T03:48:00.353Z,95998.78
2023-03-08T03:50:28.659Z,95993.75
2023-03-08T03:53:01.522Z,95999.69
2023-03-08T03:55:29.697Z,96001.25
2023-03-08T03:57:57.435Z,96005.53
2023-03-08T04:00:24.996Z,95999.69
2023-03-08T04:03:04.410Z,96000.78
2023-03-08T04:05:33.668Z,95988.66
2023-03-08T04:08:01.227Z,95972.44
2023-03-08T04:10:31.769Z,95979.00
2023-03-08T04:13:00.038Z,95974.34
2023-03-08T04:15:28.860Z,95966.06
2023-03-08T04:17:58.321Z,95967.69
2023-03-08T04:20:28.059Z,95978.28
2023-03-08T04:22:59.360Z,95962.56
2023-03-08T04:25:36.368Z,95966.69
2023-03-08T04:28:05.637Z,95982.13
2023-03-08T04:30:33.937Z,95981.84
2023-03-08T04:33:03.447Z,95977.66
2023-03-08T04:35:39.023Z,95964.88
2023-03-08T04:38:07.005Z,95957.38
2023-03-08T04:40:55.039Z,95942.97
2023-03-08T04:43:22.793Z,95940.94
2023-03-08T04:45:51.347Z,95937.84
2023-03-08T04:48:19.254Z,95928.28
2023-03-08T04:50:56.579Z,95922.34
2023-03-08T04:53:26.894Z,95906.28
2023-03-08T04:55:55.827Z,95903.69
2023-03-08T04:58:24.087Z,95897.66
2023-03-08T05:00:51.744Z,95900.78
2023-03-08T05:03:19.852Z,95907.72
2023-03-08T05:05:55.739Z,95907.34
2023-03-08T05:08:23.699Z,95899.22
2023-03-08T05:11:00.764Z,95898.19
2023-03-08T05:13:37.750Z,95892.72
2023-03-08T05:16:08.507Z,95905.16
2023-03-08T05:18:36.498Z,95905.97
2023-03-08T05:21:08.507Z,95911.25
2023-03-08T05:23:37.769Z,95904.69
2023-03-08T05:26:07.054Z,95898.19
2023-03-08T05:28:37.158Z,95905.31
2023-03-08T05:31:09.141Z,95902.84
2023-03-08T05:33:39.272Z,95890.25
2023-03-08T05:36:08.192Z,95882.75
2023-03-08T05:38:36.061Z,95888.91
2023-03-08T05:41:13.997Z,95877.91
2023-03-08T05:43:44.180Z,95883.84
2023-03-08T05:46:18.873Z,95885.31
2023-03-08T05:48:47.746Z,95896.72
2023-03-08T05:51:19.423Z,95894.72
2023-03-08T05:53:47.496Z,95893.91
2023-03-08T05:56:20.803Z,95904.03
2023-03-08T05:58:55.775Z,95893.44
2023-03-08T06:01:28.062Z,95892.59
2023-03-08T06:04:01.046Z,95888.97
2023-03-08T06:06:34.100Z,95890.97
2023-03-08T06:09:04.639Z,95891.44
2023-03-08T06:11:35.256Z,95884.28
2023-03-08T06:14:03.888Z,95882.47
2023-03-08T06:16:33.466Z,95869.84
2023-03-08T06:19:02.994Z,95875.78
2023-03-08T06:21:31.749Z,95871.13
2023-03-08T06:24:04.460Z,95864.81
2023-03-08T06:26:32.538Z,95862.97
2023-03-08T06:29:00.375Z,95853.00
2023-03-08T06:31:31.185Z,95843.06
2023-03-08T06:33:58.732Z,95843.50
2023-03-08T06:36:28.437Z,95838.84
2023-03-08T06:38:56.083Z,95835.38
2023-03-08T06:41:25.239Z,95827.59
2023-03-08T06:43:56.794Z,95833.53
2023-03-08T06:46:24.519Z,95832.97
2023-03-08T06:48:52.730Z,95833.22
2023-03-08T06:51:20.754Z,95830.38
2023-03-08T06:53:48.410Z,95818.16
2023-03-08T06:56:19.713Z,95830.03
2023-03-08T06:58:47.371Z,95816.38
2023-03-08T07:01:15.114Z,95818.47
2023-03-08T07:03:44.812Z,95812.94
2023-03-08T07:06:12.425Z,95805.66
2023-03-08T07:08:40.114Z,95799.16
2023-03-08T07:11:09.759Z,95799.59
2023-03-08T07:13:38.723Z,95803.31
2023-03-08T07:16:13.556Z,95802.72
2023-03-08T07:18:41.903Z,95805.19
2023-03-08T07:21:10.371Z,95796.81
2023-03-08T07:23:37.946Z,95782.56
2023-03-08T07:26:07.425Z,95771.78
2023-03-08T07:28:35.754Z,95775.09
2023-03-08T07:31:03.351Z,95773.25
2023-03-08T07:33:30.981Z,95765.63
2023-03-08T07:36:02.397Z,95762.78
2023-03-08T07:38:30.040Z,95749.53
2023-03-08T07:40:57.863Z,95753.47
2023-03-08T07:43:25.653Z,95761.03
2023-03-08T07:46:02.822Z,95759.03
2023-03-08T07:48:31.957Z,95755.38
2023-03-08T07:51:09.549Z,95749.41
2023-03-08T07:53:37.722Z,95741.44
2023-03-08T07:56:06.277Z,95742.91
2023-03-08T07:58:33.831Z,95733.13
2023-03-08T08:01:01.528Z,95724.97
2023-03-08T08:03:29.898Z,95727.22
2023-03-08T08:06:01.351Z,95725.78
2023-03-08T08:08:28.883Z,95719.66
2023-03-08T08:10:56.433Z,95710.66
2023-03-08T08:13:23.935Z,95706.16
2023-03-08T08:16:02.802Z,95701.47
2023-03-08T08:18:30.347Z,95688.22
2023-03-08T08:21:10.463Z,95687.22
2023-03-08T08:23:39.755Z,95692.75
2023-03-08T08:26:12.038Z,95666.44
2023-03-08T08:28:40.886Z,95646.84
2023-03-08T08:31:13.118Z,95649.28
2023-03-08T08:33:41.129Z,95643.38
2023-03-08T08:36:15.503Z,95644.44
2023-03-08T08:38:49.060Z,95636.91
2023-03-08T08:41:19.892Z,95634.03
2023-03-08T08:43:48.660Z,95637.31
2023-03-08T08:46:17.687Z,95639.97
2023-03-08T08:48:45.174Z,95636.34
2023-03-08T08:51:13.954Z,95631.03
2023-03-08T08:53:41.783Z,95623.50
2023-03-08T08:56:26.543Z,95625.34
2023-03-08T08:59:02.075Z,95610.25
2023-03-08T09:01:35.591Z,95608.22
2023-03-08T09:04:03.240Z,95602.53
2023-03-08T09:06:31.051Z,95604.97
2023-03-08T09:08:59.359Z,95597.03
2023-03-08T09:11:27.972Z,95593.13
2023-03-08T09:13:55.977Z,95588.44
2023-03-08T09:16:34.277Z,95593.97
2023-03-08T09:19:04.324Z,95590.69
2023-03-08T09:21:33.470Z,95586.22
2023-03-08T09:24:05.553Z,95584.16
2023-03-08T09:26:34.470Z,95583.34
2023-03-08T09:29:05.411Z,95576.41
2023-03-08T09:31:35.960Z,95560.88
2023-03-08T09:34:08.621Z,95559.22
2023-03-08T09:36:39.983Z,95553.94
2023-03-08T09:39:10.401Z,95548.19
2023-03-08T09:41:54.292Z,95540.84
2023-03-08T09:44:51.887Z,95535.94
2023-03-08T09:47:49.111Z,95532.25
2023-03-08T09:50:35.708Z,95535.50
2023-03-08T09:53:27.058Z,95527.38
2023-03-08T09:56:29.574Z,95527.13
2023-03-08T09:59:30.752Z,95509.94
2023-03-08T10:02:59.265Z,95508.84
2023-03-08T10:05:44.614Z,95495.34
2023-03-08T10:08:33.465Z,95509.66
2023-03-08T10:11:13.572Z,95499.38
2023-03-08T10:13:47.340Z,95490.59
2023-03-08T10:16:22.599Z,95500.03
2023-03-08T10:19:05.276Z,95493.25
2023-03-08T10:21:37.407Z,95485.13
2023-03-08T10:24:44.593Z,95483.72
2023-03-08T10:27:23.419Z,95478.34
2023-03-08T10:29:58.514Z,95466.88
2023-03-08T10:32:28.199Z,95470.94
2023-03-08T10:35:04.797Z,95458.44
2023-03-08T10:37:33.781Z,95461.31
2023-03-08T10:40:20.386Z,95458.84
2023-03-08T10:43:05.474Z,95446.97
2023-03-08T10:45:33.555Z,95438.91
2023-03-08T10:48:04.493Z,95437.44
2023-03-08T10:50:36.329Z,95441.03
2023-03-08T10:53:24.341Z,95440.81
2023-03-08T10:55:52.970Z,95432.97
2023-03-08T10:58:38.872Z,95436.28
2023-03-08T11:01:22.239Z,95436.59
2023-03-08T11:04:07.024Z,95456.78
2023-03-08T11:06:35.451Z,95438.09
2023-03-08T11:09:18.995Z,95436.28
2023-03-08T11:11:46.549Z,95433.88
2023-03-08T11:14:15.168Z,95437.50
2023-03-08T11:17:13.816Z,95448.00
2023-03-08T11:19:51.061Z,95434.09
2023-03-08T11:22:27.332Z,95442.69
2023-03-08T11:25:27.827Z,95460.81
2023-03-08T11:28:36.338Z,95441.22
2023-03-08T11:31:44.177Z,95439.44
2023-03-08T11:34:55.690Z,95444.16
2023-03-08T11:38:04.572Z,95438.31
2023-03-08T11:41:19.866Z,95443.22
2023-03-08T11:44:12.936Z,95447.56
2023-03-08T11:47:13.681Z,95435.22
2023-03-08T11:50:21.751Z,95454.94
2023-03-08T11:53:00.664Z,95407.75
2023-03-08T11:55:52.910Z,95444.41
2023-03-08T11:58:41.271Z,95437.53
2023-03-08T12:01:35.780Z,95422.69
2023-03-08T12:04:24.874Z,95435.50
2023-03-08T12:06:54.992Z,95428.00
2023-03-08T12:09:42.179Z,95431.75
2023-03-08T12:12:56.277Z,95421.91
2023-03-08T12:15:49.153Z,95419.03
2023-03-08T12:18:34.736Z,95419.16
2023-03-08T12:21:34.338Z,95413.69
2023-03-08T12:24:33.598Z,95418.47
2023-03-08T12:27:26.057Z,95432.03
2023-03-08T12:30:11.735Z,95426.34
2023-03-08T12:32:42.841Z,95435.41
2023-03-08T12:35:22.580Z,95435.66
2023-03-08T12:38:18.939Z,95422.78
2023-03-08T12:40:55.451Z,95422.31
2023-03-08T12:43:22.823Z,95436.88
2023-03-08T12:46:08.442Z,95424.53
2023-03-08T12:48:45.170Z,95429.16
2023-03-08T12:51:12.680Z,95426.03
2023-03-08T12:53:51.709Z,95428.28
2023-03-08T12:56:53.889Z,95405.34
2023-03-08T12:59:21.261Z,95422.56
2023-03-08T13:01:57.595Z,95420.03
2023-03-08T13:04:40.489Z,95428.03
2023-03-08T13:07:40.059Z,95421.66
2023-03-08T13:10:25.492Z,95434.31
2023-03-08T13:13:18.481Z,95422.56
2023-03-08T13:16:26.285Z,95416.41
2023-03-08T13:19:09.038Z,95412.66
2023-03-08T13:21:47.457Z,95437.53
2023-03-08T13:24:32.341Z,95431.25
2023-03-08T13:27:34.585Z,95429.97
2023-03-08T13:30:33.927Z,95440.06
2023-03-08T13:33:08.240Z,95416.00
2023-03-08T13:35:35.810Z,95417.19
2023-03-08T13:38:03.418Z,95411.47
2023-03-08T13:40:31.557Z,95409.72
2023-03-08T13:43:05.075Z,95444.88
2023-03-08T13:45:32.809Z,95404.28
2023-03-08T13:48:08.972Z,95409.28
2023-03-08T13:50:43.545Z,95417.03
2023-03-08T13:53:18.192Z,95423.47
2023-03-08T13:55:51.712Z,95430.94
2023-03-08T13:58:33.781Z,95415.00
2023-03-08T14:01:14.425Z,95417.81
2023-03-08T14:03:43.970Z,95416.50
2023-03-08T14:06:30.736Z,95417.91
2023-03-08T14:09:02.016Z,95392.69
2023-03-08T14:11:38.632Z,95395.47
2023-03-08T14:14:15.004Z,95402.47
2023-03-08T14:16:43.191Z,95398.88
2023-03-08T14:19:38.738Z,95413.25
2023-03-08T14:22:37.755Z,95413.84
2023-03-08T14:25:07.191Z,95413.03
2023-03-08T14:27:41.517Z,95429.78
2023-03-08T14:30:15.578Z,95427.19
2023-03-08T14:33:16.748Z,95421.84
2023-03-08T14:35:53.887Z,95422.53
2023-03-08T14:38:30.095Z,95410.31
2023-03-08T14:41:03.327Z,95413.91
2023-03-08T14:43:30.954Z,95419.25
2023-03-08T14:46:05.499Z,95435.88
2023-03-08T14:48:37.894Z,95412.03
2023-03-08T14:51:24.808Z,95426.13
2023-03-08T14:54:02.941Z,95402.75
2023-03-08T14:56:32.259Z,95422.38
2023-03-08T14:59:02.246Z,95417.63
2023-03-08T15:01:35.997Z,95405.44
2023-03-08T15:04:12.071Z,95401.13
2023-03-08T15:06:41.375Z,95398.91
2023-03-08T15:09:09.134Z,95389.09
2023-03-08T15:11:36.974Z,95386.06
2023-03-08T15:14:04.780Z,95379.94
2023-03-08T15:16:32.377Z,95375.59
2023-03-08T15:18:59.973Z,95367.19
2023-03-08T15:21:29.817Z,95366.41
2023-03-08T15:23:58.320Z,95370.66
2023-03-08T15:26:31.620Z,95373.56
2023-03-08T15:29:03.165Z,95370.56
2023-03-08T15:31:31.988Z,95364.13
2023-03-08T15:34:00.507Z,95389.56
2023-03-08T15:36:32.392Z,95382.16
2023-03-08T15:39:01.236Z,95371.22
2023-03-08T15:41:28.696Z,95374.44
2023-03-08T15:43:56.173Z,95374.13
2023-03-08T15:46:23.893Z,95371.97
2023-03-08T15:48:51.431Z,95356.94
2023-03-08T15:51:21.588Z,95358.91
2023-03-08T15:53:50.204Z,95370.44
2023-03-08T15:56:17.891Z,95358.81
2023-03-08T15:58:45.378Z,95375.38
2023-03-08T16:01:12.903Z,95360.34
2023-03-08T16:03:40.471Z,95362.00
2023-03-08T16:06:16.522Z,95372.34
2023-03-08T16:08:44.071Z,95360.19
2023-03-08T16:11:15.454Z,95364.78
2023-03-08T16:13:43.152Z,95363.72
2023-03-08T16:16:10.784Z,95344.66
2023-03-08T16:18:40.308Z,95362.91
2023-03-08T16:21:09.606Z,95363.59
2023-03-08T16:23:39.021Z,95352.00
2023-03-08T16:26:16.680Z,95359.78
2023-03-08T16:28:47.179Z,95355.81
2023-03-08T16:31:16.689Z,95365.03
2023-03-08T16:33:44.367Z,95354.72
2023-03-08T16:36:12.569Z,95351.53
2023-03-08T16:38:41.408Z,95361.28
2023-03-08T16:41:13.909Z,95353.50
2023-03-08T16:43:47.169Z,95349.06
2023-03-08T16:46:19.986Z,95344.44
2023-03-08T16:48:49.851Z,95331.88
2023-03-08T16:51:20.152Z,95334.78
2023-03-08T16:53:48.592Z,95330.56
2023-03-08T16:56:25.367Z,95332.78
2023-03-08T16:58:55.772Z,95326.13
2023-03-08T17:01:24.565Z,95321.38
2023-03-08T17:03:52.750Z,95318.63
2023-03-08T17:06:24.457Z,95318.38
2023-03-08T17:08:52.172Z,95314.31
2023-03-08T17:11:23.243Z,95320.94
2023-03-08T17:13:55.318Z,95317.81
2023-03-08T17:16:27.265Z,95327.66
2023-03-08T17:18:55.291Z,95333.59
2023-03-08T17:21:23.376Z,95333.75
2023-03-08T17:23:52.680Z,95323.84
2023-03-08T17:26:23.149Z,95326.53
2023-03-08T17:28:52.566Z,95321.75
2023-03-08T17:31:22.766Z,95328.97
2023-03-08T17:33:51.246Z,95326.88
2023-03-08T17:36:20.247Z,95333.03
2023-03-08T17:38:47.920Z,95331.19
2023-03-08T17:41:16.956Z,95337.56
2023-03-08T17:43:44.544Z,95336.53
2023-03-08T17:46:24.286Z,95333.84
2023-03-08T17:48:53.069Z,95338.72
2023-03-08T17:51:25.324Z,95326.63
2023-03-08T17:53:53.958Z,95334.53
2023-03-08T17:56:29.410Z,95338.59
2023-03-08T17:58:59.090Z,95340.69
2023-03-08T18:01:30.703Z,95340.47
2023-03-08T18:03:58.969Z,95335.72
2023-03-08T18:06:35.618Z,95320.19
2023-03-08T18:09:07.533Z,95303.56
2023-03-08T18:11:37.634Z,95313.34
2023-03-08T18:14:12.411Z,95321.22
2023-03-08T18:16:40.752Z,95323.13
2023-03-08T18:19:08.501Z,95317.16
2023-03-08T18:21:36.990Z,95325.59
2023-03-08T18:24:05.551Z,95326.56
2023-03-08T18:26:33.433Z,95323.50
2023-03-08T18:29:00.981Z,95320.59
2023-03-08T18:31:30.890Z,95327.00
2023-03-08T18:33:58.520Z,95333.75
2023-03-08T18:36:26.172Z,95329.19
2023-03-08T18:38:53.718Z,95333.75
2023-03-08T18:41:26.990Z,95326.75
2023-03-08T18:43:56.002Z,95328.41
2023-03-08T18:46:28.724Z,95328.16
2023-03-08T18:48:58.137Z,95329.53
2023-03-08T18:51:25.669Z,95316.06
2023-03-08T18:53:55.387Z,95321.91
2023-03-08T18:56:25.626Z,95312.34
2023-03-08T18:58:55.431Z,95327.59
2023-03-08T19:01:24.061Z,95315.03
2023-03-08T19:03:52.102Z,95302.81
2023-03-08T19:06:19.739Z,95316.16
2023-03-08T19:08:47.307Z,95320.50
2023-03-08T19:11:21.993Z,95325.94
2023-03-08T19:13:50.251Z,95325.84
2023-03-08T19:16:23.722Z,95306.25
2023-03-08T19:18:59.043Z,95317.16
2023-03-08T19:21:39.410Z,95313.09
2023-03-08T19:24:07.727Z,95327.16
2023-03-08T19:26:37.710Z,95320.06
2023-03-08T19:29:12.300Z,95317.75
2023-03-08T19:31:50.185Z,95316.09
2023-03-08T19:34:19.896Z,95310.53
2023-03-08T19:36:48.501Z,95321.22
2023-03-08T19:39:23.234Z,95316.31
2023-03-08T19:42:01.530Z,95316.09
2023-03-08T19:44:30.456Z,95316.44
2023-03-08T19:46:58.595Z,95315.41
2023-03-08T19:49:30.188Z,95306.25
2023-03-08T19:52:01.077Z,95312.16
2023-03-08T19:54:30.517Z,95318.53
2023-03-08T19:56:59.322Z,95322.03
2023-03-08T19:59:27.158Z,95329.34
2023-03-08T20:01:55.845Z,95333.78
2023-03-08T20:04:24.296Z,95343.41
2023-03-08T20:06:52.058Z,95355.97
2023-03-08T20:09:23.881Z,95353.28
2023-03-08T20:11:57.502Z,95368.06
2023-03-08T20:14:27.389Z,95368.56
2023-03-08T20:16:56.201Z,95379.47
2023-03-08T20:19:23.791Z,95382.84
2023-03-08T20:21:51.343Z,95385.53
2023-03-08T20:24:19.309Z,95387.38
2023-03-08T20:26:47.421Z,95388.09
2023-03-08T20:29:15.510Z,95382.50
2023-03-08T20:31:44.971Z,95384.25
2023-03-08T20:34:12.499Z,95392.13
2023-03-08T20:36:39.994Z,95389.59
2023-03-08T20:39:07.506Z,95393.75
2023-03-08T20:41:35.060Z,95402.34
2023-03-08T20:44:02.555Z,95397.81
2023-03-08T20:46:33.227Z,95408.03
2023-03-08T20:49:01.402Z,95408.59
2023-03-08T20:51:29.018Z,95419.63
2023-03-08T20:53:57.369Z,95408.50
2023-03-08T20:56:26.181Z,95395.72
2023-03-08T20:58:56.485Z,95385.84
2023-03-08T21:01:31.939Z,95389.03
2023-03-08T21:03:59.562Z,95385.63
2023-03-08T21:06:30.523Z,95385.53
2023-03-08T21:08:59.737Z,95389.34
2023-03-08T21:11:28.641Z,95385.75
2023-03-08T21:13:56.530Z,95390.59
2023-03-08T21:16:26.632Z,95392.81
2023-03-08T21:18:58.001Z,95393.75
2023-03-08T21:21:36.053Z,95405.81
2023-03-08T21:24:15.274Z,95403.97
2023-03-08T21:26:44.170Z,95412.00
2023-03-08T21:29:15.363Z,95405.59
2023-03-08T21:31:48.330Z,95402.09
2023-03-08T21:34:17.282Z,95400.25
2023-03-08T21:36:45.195Z,95391.41
2023-03-08T21:39:13.608Z,95395.47
2023-03-08T21:41:44.529Z,95413.38
2023-03-08T21:44:16.661Z,95398.38
2023-03-08T21:46:46.379Z,95404.22
2023-03-08T21:49:21.666Z,95398.50
2023-03-08T21:51:50.217Z,95412.00
2023-03-08T21:54:18.712Z,95404.09
2023-03-08T21:56:47.046Z,95405.41
2023-03-08T21:59:16.733Z,95385.84
2023-03-08T22:01:48.289Z,95380.41
2023-03-08T22:04:16.983Z,95392.81
2023-03-08T22:06:44.586Z,95380.03
2023-03-08T22:09:12.093Z,95376.91
2023-03-08T22:11:40.168Z,95366.19
2023-03-08T22:14:08.248Z,95363.53
2023-03-08T22:16:41.761Z,95359.00
2023-03-08T22:19:10.257Z,95363.75
2023-03-08T22:21:37.919Z,95361.31
2023-03-08T22:24:06.010Z,95359.44
2023-03-08T22:26:33.599Z,95362.13
2023-03-08T22:29:01.211Z,95373.75
2023-03-08T22:31:30.288Z,95364.25
2023-03-08T22:33:58.453Z,95339.75
2023-03-08T22:36:25.985Z,95322.88
2023-03-08T22:38:53.731Z,95307.69
2023-03-08T22:41:24.959Z,95302.72
2023-03-08T22:43:53.435Z,95328.59
2023-03-08T22:46:24.692Z,95334.28
2023-03-08T22:48:54.361Z,95339.50
2023-03-08T22:51:23.032Z,95334.84
2023-03-08T22:53:51.218Z,95346.69
2023-03-08T22:56:29.489Z,95345.44
2023-03-08T22:58:57.582Z,95328.72
2023-03-08T23:01:26.342Z,95307.41
2023-03-08T23:03:57.119Z,95307.53
2023-03-08T23:06:28.036Z,95268.81
2023-03-08T23:08:58.159Z,95263.59
2023-03-08T23:11:26.878Z,95270.31
2023-03-08T23:13:54.656Z,95279.41
2023-03-08T23:16:22.596Z,95283.69
2023-03-08T23:18:52.218Z,95276.50
2023-03-08T23:21:22.968Z,95263.69
2023-03-08T23:23:50.683Z,95255.44
2023-03-08T23:26:23.788Z,95255.44
2023-03-08T23:28:51.444Z,95259.38
2023-03-08T23:31:22.721Z,95259.31
2023-03-08T23:33:51.389Z,95241.63
2023-03-08T23:36:22.322Z,95236.75
2023-03-08T23:38:50.459Z,95219.00
2023-03-08T23:41:18.518Z,95215.28
2023-03-08T23:43:46.894Z,95197.38
2023-03-08T23:46:19.138Z,95198.53
2023-03-08T23:48:48.688Z,95197.25
2023-03-08T23:51:19.957Z,95193.53
2023-03-08T23:53:53.317Z,95198.63
2023-03-08T23:56:43.009Z,95180.97
2023-03-08T23:59:12.064Z,95178.63
